Time;durP1;ratioP1;P1;durP2;ratioP2;P2;SDS_P1;SDS_P2;PMS_P1;PMS_P2;Temp;Humidity;BMP_temperature;BMP_pressure;BME280_temperature;BME280_humidity;BME280_pressure;Samples;Min_cycle;Max_cycle;Signal;HPM_P1;HPM_P2
2024/01/31 00:00:09;;;;;;;;;10.00;9.75;;;;;8.35;74.42;101502.53;5077051;28;8914;-57
2024/01/31 00:02:37;;;;;;;;;10.00;9.75;;;;;8.33;74.47;101499.09;5077611;28;8823;-57
2024/01/31 00:05:05;;;;;;;;;11.75;8.50;;;;;8.29;74.62;101496.66;5077538;28;8954;-60
2024/01/31 00:07:33;;;;;;;;;10.00;9.50;;;;;8.22;74.79;101496.03;5077409;28;8979;-60
2024/01/31 00:10:01;;;;;;;;;12.50;10.00;;;;;8.15;75.18;101507.81;5077330;28;8828;-57
2024/01/31 00:12:28;;;;;;;;;14.75;12.50;;;;;8.05;75.33;101509.19;5077727;28;8832;-59
2024/01/31 00:14:56;;;;;;;;;8.50;7.00;;;;;7.99;75.45;101512.09;5091898;28;8825;-59
2024/01/31 00:17:24;;;;;;;;;9.75;8.50;;;;;7.93;75.64;101512.38;5097308;28;8842;-58
2024/01/31 00:19:52;;;;;;;;;3.25;3.25;;;;;7.89;76.26;101518.75;5096916;28;8876;-57
2024/01/31 00:22:19;;;;;;;;;4.00;4.00;;;;;7.84;75.92;101518.06;5094719;28;8924;-59
2024/01/31 00:24:47;;;;;;;;;9.00;6.75;;;;;7.80;75.92;101510.31;5101655;28;8818;-58
2024/01/31 00:27:15;;;;;;;;;7.50;5.75;;;;;7.76;76.15;101514.03;5106188;28;8831;-60
2024/01/31 00:29:43;;;;;;;;;5.00;3.50;;;;;7.69;76.27;101515.22;5099728;28;8836;-57
2024/01/31 00:32:13;;;;;;;;;1.00;1.00;;;;;7.64;76.22;101524.31;5113491;28;8840;-60
2024/01/31 00:34:42;;;;;;;;;3.00;3.00;;;;;7.59;76.64;101534.22;5123451;28;8954;-58
2024/01/31 00:37:13;;;;;;;;;1.00;1.00;;;;;7.53;76.86;101526.53;5108764;28;8806;-58
2024/01/31 00:39:43;;;;;;;;;1.00;0.00;;;;;7.49;76.35;101527.59;5084924;28;8850;-59
2024/01/31 00:42:12;;;;;;;;;0.00;0.00;;;;;7.46;77.55;101535.66;5103067;28;8989;-59
2024/01/31 00:44:42;;;;;;;;;1.00;1.00;;;;;7.44;77.14;101542.81;5120133;28;8830;-57
2024/01/31 00:47:09;;;;;;;;;1.00;1.00;;;;;7.41;77.19;101537.63;5088551;28;8832;-57
2024/01/31 00:49:37;;;;;;;;;1.00;1.00;;;;;7.37;76.92;101531.63;5076903;28;8828;-58
2024/01/31 00:52:05;;;;;;;;;0.50;0.50;;;;;7.35;77.29;101533.44;5075761;28;8897;-58
2024/01/31 00:54:32;;;;;;;;;1.00;1.00;;;;;7.35;77.76;101532.59;5076418;28;8832;-57
2024/01/31 00:57:01;;;;;;;;;1.00;0.00;;;;;7.33;77.00;101532.66;5075807;28;8967;-57
2024/01/31 00:59:29;;;;;;;;;3.00;1.00;;;;;7.32;76.82;101530.94;5076560;28;8832;-57
2024/01/31 01:01:57;;;;;;;;;0.25;0.25;;;;;7.31;77.08;101538.94;5075330;28;8820;-57
2024/01/31 01:04:25;;;;;;;;;1.00;1.00;;;;;7.32;77.14;101536.25;5076584;28;8852;-60
2024/01/31 01:06:52;;;;;;;;;1.50;1.50;;;;;7.33;77.06;101537.09;5075917;28;8848;-60
2024/01/31 01:09:20;;;;;;;;;3.00;3.00;;;;;7.34;77.57;101529.09;5076519;28;8905;-57
2024/01/31 01:11:48;;;;;;;;;1.00;1.00;;;;;7.37;77.04;101533.41;5075493;28;8905;-58
2024/01/31 01:14:16;;;;;;;;;3.00;1.50;;;;;7.38;77.25;101532.47;5076068;28;8903;-57
2024/01/31 01:16:46;;;;;;;;;3.50;3.00;;;;;7.38;76.92;101529.81;5076310;28;8844;-57
2024/01/31 01:19:14;;;;;;;;;3.00;3.00;;;;;7.39;76.69;101534.19;5076566;28;8942;-57
2024/01/31 01:21:42;;;;;;;;;5.00;5.00;;;;;7.39;77.15;101535.06;5094742;28;8865;-59
2024/01/31 01:24:10;;;;;;;;;3.00;3.00;;;;;7.40;77.03;101539.44;5095081;28;8818;-58
2024/01/31 01:26:37;;;;;;;;;1.00;1.00;;;;;7.41;76.92;101534.97;5095172;28;8822;-60
2024/01/31 01:29:05;;;;;;;;;4.50;3.50;;;;;7.42;76.46;101536.72;5094473;28;8830;-60
2024/01/31 01:31:33;;;;;;;;;3.00;3.00;;;;;7.45;77.28;101531.28;5094679;28;8989;-59
2024/01/31 01:34:01;;;;;;;;;3.75;3.50;;;;;7.44;76.68;101527.75;5098757;28;8826;-59
2024/01/31 01:36:28;;;;;;;;;3.75;3.75;;;;;7.46;76.31;101540.97;5104665;28;8802;-58
2024/01/31 01:38:56;;;;;;;;;1.50;1.50;;;;;7.48;76.52;101547.06;5100509;28;8808;-58
2024/01/31 01:41:24;;;;;;;;;4.75;4.25;;;;;7.49;76.70;101551.47;5115686;28;8820;-58
2024/01/31 01:43:52;;;;;;;;;3.25;3.25;;;;;7.50;76.71;101561.13;5116165;28;8919;-60
2024/01/31 01:46:20;;;;;;;;;6.00;5.50;;;;;7.49;76.51;101549.66;5116307;28;9485;-57
2024/01/31 01:48:48;;;;;;;;;3.25;3.00;;;;;7.49;76.54;101538.19;5115823;28;8848;-61
2024/01/31 01:51:15;;;;;;;;;3.00;3.00;;;;;7.49;76.54;101544.34;5109550;28;8919;-60
2024/01/31 01:53:43;;;;;;;;;4.00;4.00;;;;;7.48;76.71;101547.06;5093105;28;8960;-60
2024/01/31 01:56:13;;;;;;;;;0.25;0.25;;;;;7.48;76.58;101547.94;5075028;28;8839;-60
2024/01/31 01:58:41;;;;;;;;;7.00;7.00;;;;;7.48;76.26;101550.59;5075591;28;8828;-60
2024/01/31 02:01:09;;;;;;;;;6.00;5.00;;;;;7.48;76.93;101555.88;5076000;28;8820;-60
2024/01/31 02:03:36;;;;;;;;;4.00;3.75;;;;;7.49;76.76;101564.72;5075539;28;8824;-60
2024/01/31 02:06:04;;;;;;;;;0.25;0.25;;;;;7.48;76.74;101562.94;5075547;28;8832;-59
2024/01/31 02:08:32;;;;;;;;;5.00;5.00;;;;;7.48;76.69;101562.94;5075327;28;8856;-60
2024/01/31 02:11:00;;;;;;;;;6.25;3.75;;;;;7.48;76.52;101562.94;5075024;28;9780;-60
2024/01/31 02:13:28;;;;;;;;;6.00;4.50;;;;;7.47;76.69;101566.53;5074288;28;8827;-60
2024/01/31 02:15:55;;;;;;;;;8.00;5.50;;;;;7.47;76.61;101574.47;5073964;28;8828;-60
2024/01/31 02:18:23;;;;;;;;;6.00;6.00;;;;;7.48;77.06;101578.84;5073971;28;8812;-59
2024/01/31 02:20:51;;;;;;;;;9.00;8.00;;;;;7.46;77.13;101573.63;5075048;28;8820;-59
2024/01/31 02:23:19;;;;;;;;;11.00;8.00;;;;;7.46;76.72;101578.94;5077380;28;8832;-59
2024/01/31 02:25:46;;;;;;;;;6.50;6.00;;;;;7.46;76.59;101575.41;5078635;28;9576;-59
2024/01/31 02:28:15;;;;;;;;;8.00;8.00;;;;;7.46;76.83;101586.91;5087843;28;8825;-60
2024/01/31 02:30:42;;;;;;;;;6.00;4.00;;;;;7.44;76.99;101582.56;5097814;28;8889;-59
2024/01/31 02:33:10;;;;;;;;;6.00;4.50;;;;;7.42;77.10;101581.78;5098298;28;8824;-59
2024/01/31 02:35:38;;;;;;;;;10.40;9.60;;;;;7.41;76.58;101575.59;5097510;28;8814;-59
2024/01/31 02:38:06;;;;;;;;;1.00;1.00;;;;;7.41;77.00;101580.03;5098789;28;8838;-58
2024/01/31 02:40:33;;;;;;;;;7.50;3.75;;;;;7.40;76.89;101581.84;5098547;28;8957;-59
2024/01/31 02:43:01;;;;;;;;;5.00;4.00;;;;;7.42;76.94;101587.09;5098783;28;8899;-59
2024/01/31 02:45:29;;;;;;;;;3.50;3.50;;;;;7.42;76.97;101581.78;5100416;28;9608;-57
2024/01/31 02:47:57;;;;;;;;;6.00;4.00;;;;;7.42;77.57;101579.13;5096742;28;8861;-59
2024/01/31 02:50:26;;;;;;;;;3.00;3.00;;;;;7.43;76.87;101576.41;5098315;28;8822;-56
2024/01/31 02:52:54;;;;;;;;;6.75;6.25;;;;;7.45;77.14;101579.00;5098060;28;8814;-57
2024/01/31 02:55:22;;;;;;;;;5.50;4.00;;;;;7.45;76.60;101589.59;5098849;28;8858;-57
2024/01/31 02:57:50;;;;;;;;;1.00;1.00;;;;;7.43;77.40;101579.03;5102194;28;8848;-58
2024/01/31 03:00:17;;;;;;;;;5.00;5.00;;;;;7.43;76.92;101588.81;5101907;28;8825;-58
2024/01/31 03:02:45;;;;;;;;;7.00;7.00;;;;;7.43;76.94;101586.16;5101044;28;8808;-59
2024/01/31 03:05:12;;;;;;;;;6.40;6.00;;;;;7.44;77.19;101579.91;5119356;28;8808;-57
2024/01/31 03:07:40;;;;;;;;;4.00;4.00;;;;;7.44;77.25;101582.56;5118716;28;8912;-58
2024/01/31 03:10:09;;;;;;;;;6.50;5.75;;;;;7.44;77.08;101578.13;5118931;28;8816;-57
2024/01/31 03:12:38;;;;;;;;;9.00;9.00;;;;;7.45;77.52;101576.34;5118844;28;8832;-59
2024/01/31 03:15:06;;;;;;;;;6.00;5.50;;;;;7.44;77.29;101572.81;5109089;28;9025;-57
2024/01/31 03:17:35;;;;;;;;;6.60;6.60;;;;;7.43;77.06;101575.56;5098830;28;8845;-57
2024/01/31 03:20:05;;;;;;;;;5.25;5.25;;;;;7.41;77.29;101572.97;5085211;28;8921;-59
2024/01/31 03:22:34;;;;;;;;;7.00;7.00;;;;;7.42;77.34;101581.78;5077735;28;8917;-59
2024/01/31 03:25:02;;;;;;;;;5.60;5.20;;;;;7.41;77.11;101577.38;5078330;28;8832;-57
2024/01/31 03:27:30;;;;;;;;;6.00;5.50;;;;;7.41;77.22;101582.69;5077739;28;8820;-58
2024/01/31 03:30:01;;;;;;;;;8.00;8.00;;;;;7.42;77.23;101581.78;5077937;28;8962;-57
2024/01/31 03:32:35;;;;;;;;;4.50;4.50;;;;;7.44;77.07;101582.56;5078018;28;8847;-60
2024/01/31 03:35:03;;;;;;;;;4.00;3.75;;;;;7.44;77.08;101578.13;5076722;28;8839;-57
2024/01/31 03:37:31;;;;;;;;;0.00;0.00;;;;;7.43;77.21;101580.84;5078534;28;8824;-57
2024/01/31 03:39:59;;;;;;;;;1.00;1.00;;;;;7.41;77.43;101585.31;5077952;28;9569;-57
2024/01/31 03:42:27;;;;;;;;;1.00;1.00;;;;;7.38;77.82;101582.81;5077771;28;8854;-57
2024/01/31 03:44:56;;;;;;;;;0.25;0.25;;;;;7.34;77.80;101592.69;5077740;28;8831;-56
2024/01/31 03:47:24;;;;;;;;;1.50;1.00;;;;;7.33;77.32;101603.31;5077465;28;8890;-57
2024/01/31 03:49:53;;;;;;;;;0.00;0.00;;;;;7.27;77.78;101595.66;5076610;28;8852;-58
2024/01/31 03:52:22;;;;;;;;;0.75;0.75;;;;;7.25;77.82;101597.47;5090564;28;8830;-59
2024/01/31 03:54:50;;;;;;;;;2.00;1.00;;;;;7.24;77.82;101591.31;5077085;28;8867;-59
2024/01/31 03:57:19;;;;;;;;;1.00;1.00;;;;;7.22;78.01;101594.94;5086073;28;8822;-57
2024/01/31 03:59:46;;;;;;;;;1.00;1.00;;;;;7.20;77.99;101586.22;5097066;28;8804;-59
2024/01/31 04:02:14;;;;;;;;;1.00;1.00;;;;;7.18;78.17;101582.75;5094476;28;8822;-56
2024/01/31 04:04:42;;;;;;;;;1.00;1.00;;;;;7.15;78.29;101585.53;5104858;28;8800;-58
2024/01/31 04:07:10;;;;;;;;;0.50;0.00;;;;;7.14;78.14;101592.59;5118552;28;8904;-59
2024/01/31 04:09:38;;;;;;;;;2.00;2.00;;;;;7.12;77.84;101577.72;5104604;28;8913;-59
2024/01/31 04:12:05;;;;;;;;;1.00;1.00;;;;;7.10;77.89;101571.59;5076374;28;8905;-58
2024/01/31 04:14:33;;;;;;;;;1.00;1.00;;;;;7.09;78.06;101573.38;5077179;28;8820;-57
2024/01/31 04:17:01;;;;;;;;;0.50;0.50;;;;;7.08;77.85;101562.84;5076971;28;8855;-56
2024/01/31 04:19:28;;;;;;;;;0.50;0.50;;;;;7.07;78.05;101563.78;5077050;28;8862;-59
2024/01/31 04:21:56;;;;;;;;;0.00;0.00;;;;;7.06;78.08;101560.25;5102801;28;8942;-57
2024/01/31 04:24:24;;;;;;;;;0.25;0.25;;;;;7.03;78.17;101559.50;5117613;28;8804;-57
2024/01/31 04:26:52;;;;;;;;;0.50;0.00;;;;;7.01;78.09;101564.00;5110447;28;8858;-59
2024/01/31 04:29:20;;;;;;;;;0.50;0.50;;;;;6.98;77.86;101550.91;5076875;28;8842;-59
2024/01/31 04:31:48;;;;;;;;;0.00;0.00;;;;;6.97;78.40;101554.47;5077118;28;8848;-58
2024/01/31 04:34:16;;;;;;;;;0.00;0.00;;;;;6.95;78.11;101554.53;5076351;28;8887;-60
2024/01/31 04:36:44;;;;;;;;;0.00;0.00;;;;;6.95;78.12;101558.94;5076024;28;8824;-59
2024/01/31 04:39:12;;;;;;;;;1.00;1.00;;;;;6.95;78.11;101561.59;5076315;28;8824;-60
2024/01/31 04:41:40;;;;;;;;;0.75;0.00;;;;;6.94;78.15;101565.16;5075984;28;8816;-57
2024/01/31 04:44:08;;;;;;;;;1.00;1.00;;;;;6.93;77.92;101563.44;5076754;28;8828;-57
2024/01/31 04:46:36;;;;;;;;;1.40;1.00;;;;;6.93;77.78;101566.09;5075705;28;8886;-59
2024/01/31 04:49:04;;;;;;;;;1.75;0.50;;;;;6.91;78.56;101568.78;5075411;28;8975;-59
2024/01/31 04:51:32;;;;;;;;;0.50;0.50;;;;;6.90;78.06;101579.47;5075625;28;8953;-58
2024/01/31 04:53:59;;;;;;;;;1.00;1.00;;;;;6.88;78.21;101571.56;5075623;28;8855;-57
2024/01/31 04:56:27;;;;;;;;;1.00;1.00;;;;;6.90;77.88;101576.81;5076326;28;8832;-58
2024/01/31 04:58:55;;;;;;;;;0.50;0.50;;;;;6.89;77.82;101567.16;5093232;28;9507;-59
2024/01/31 05:01:23;;;;;;;;;2.00;1.00;;;;;6.87;78.19;101564.56;5088633;28;8820;-59
2024/01/31 05:03:51;;;;;;;;;0.50;0.50;;;;;6.87;77.93;101564.56;5098521;28;8810;-57
2024/01/31 05:06:18;;;;;;;;;0.00;0.00;;;;;6.85;77.63;101566.41;5108164;28;8903;-57
2024/01/31 05:08:46;;;;;;;;;0.00;0.00;;;;;6.86;78.12;101564.59;5093581;28;8862;-59
2024/01/31 05:11:14;;;;;;;;;1.00;1.00;;;;;6.85;78.18;101568.19;5095064;28;8826;-58
2024/01/31 05:13:41;;;;;;;;;0.00;0.00;;;;;6.85;78.15;101570.81;5098000;28;8949;-57
2024/01/31 05:16:09;;;;;;;;;2.00;0.00;;;;;6.84;77.95;101579.69;5093826;28;8826;-59
2024/01/31 05:18:37;;;;;;;;;3.25;3.00;;;;;6.84;78.06;101577.88;5094387;28;8806;-57
2024/01/31 05:21:08;;;;;;;;;0.00;0.00;;;;;6.84;78.09;101577.03;5094663;28;9499;-56
2024/01/31 05:23:35;;;;;;;;;0.50;0.50;;;;;6.83;77.75;101572.69;5094740;28;8838;-56
2024/01/31 05:26:03;;;;;;;;;0.50;0.00;;;;;6.80;77.91;101563.06;5094637;28;8848;-57
2024/01/31 05:28:31;;;;;;;;;0.75;0.75;;;;;6.80;77.85;101571.00;5095773;28;8864;-56
2024/01/31 05:30:59;;;;;;;;;0.60;0.60;;;;;6.80;78.14;101575.41;5095571;28;8836;-57
2024/01/31 05:33:27;;;;;;;;;0.50;0.00;;;;;6.79;78.03;101571.06;5093684;28;8806;-58
2024/01/31 05:35:54;;;;;;;;;0.00;0.00;;;;;6.79;78.02;101571.94;5094700;28;9607;-57
2024/01/31 05:38:22;;;;;;;;;1.00;1.00;;;;;6.80;77.61;101563.06;5097543;28;8832;-56
2024/01/31 05:40:50;;;;;;;;;0.00;0.00;;;;;6.80;78.37;101560.41;5095030;28;8826;-58
2024/01/31 05:43:18;;;;;;;;;3.40;1.40;;;;;6.80;78.27;101562.19;5098558;28;8806;-56
2024/01/31 05:45:46;;;;;;;;;0.00;0.00;;;;;6.80;77.46;101556.88;5095781;28;8825;-56
2024/01/31 05:48:14;;;;;;;;;1.00;0.00;;;;;6.80;77.73;101572.78;5095103;28;9492;-57
2024/01/31 05:50:42;;;;;;;;;0.00;0.00;;;;;6.79;77.83;101577.22;5097977;28;8833;-58
2024/01/31 05:53:10;;;;;;;;;0.00;0.00;;;;;6.79;77.92;101576.34;5094705;28;8834;-58
2024/01/31 05:55:37;;;;;;;;;0.75;0.75;;;;;6.78;78.00;101571.97;5097435;28;8826;-58
2024/01/31 05:58:05;;;;;;;;;0.00;0.00;;;;;6.77;77.61;101567.59;5095016;28;8822;-58
2024/01/31 06:00:33;;;;;;;;;2.50;1.00;;;;;6.77;77.76;101567.59;5119971;28;9512;-58
2024/01/31 06:03:01;;;;;;;;;0.00;0.00;;;;;6.74;78.32;101562.44;5103448;28;8997;-57
2024/01/31 06:05:29;;;;;;;;;1.00;1.00;;;;;6.74;77.94;101563.28;5099251;28;8822;-58
2024/01/31 06:07:57;;;;;;;;;0.00;0.00;;;;;6.75;77.99;101565.00;5099047;28;8867;-58
2024/01/31 06:10:25;;;;;;;;;0.75;0.75;;;;;6.76;77.94;101576.47;5082849;28;8831;-56
2024/01/31 06:12:53;;;;;;;;;1.00;1.00;;;;;6.74;78.01;101578.31;5078158;28;8844;-57
2024/01/31 06:15:21;;;;;;;;;1.00;1.00;;;;;6.74;77.75;101579.16;5113071;28;8839;-56
2024/01/31 06:17:49;;;;;;;;;0.75;0.75;;;;;6.75;77.70;101580.88;5119010;28;8832;-58
2024/01/31 06:20:17;;;;;;;;;2.00;1.00;;;;;6.75;77.86;101578.25;5118477;28;8862;-58
2024/01/31 06:22:45;;;;;;;;;1.50;1.50;;;;;6.75;77.26;101575.59;5118315;28;8816;-55
2024/01/31 06:25:13;;;;;;;;;0.00;0.00;;;;;6.73;77.90;101576.56;5118316;28;8978;-57
2024/01/31 06:27:41;;;;;;;;;3.50;2.50;;;;;6.70;77.24;101576.69;5079982;28;8820;-57
2024/01/31 06:30:09;;;;;;;;;2.00;2.00;;;;;6.70;78.08;101582.00;5078080;28;8838;-57
2024/01/31 06:32:47;;;;;;;;;3.50;3.50;;;;;6.69;78.13;101580.28;5078142;28;8901;-56
2024/01/31 06:35:15;;;;;;;;;1.50;1.50;;;;;6.69;77.96;101583.75;5076795;28;9502;-58
2024/01/31 06:37:43;;;;;;;;;2.00;2.00;;;;;6.70;77.62;101579.34;5076074;28;9401;-55
2024/01/31 06:40:11;;;;;;;;;1.00;1.00;;;;;6.69;77.73;101580.28;5076462;28;8808;-57
2024/01/31 06:42:38;;;;;;;;;4.00;3.75;;;;;6.68;77.66;101581.19;5077149;28;8863;-57
2024/01/31 06:45:06;;;;;;;;;3.75;3.50;;;;;6.68;77.79;101579.38;5076986;28;8832;-56
2024/01/31 06:47:34;;;;;;;;;3.50;3.50;;;;;6.68;78.22;101567.97;5076842;28;8844;-58
2024/01/31 06:50:02;;;;;;;;;5.20;5.20;;;;;6.68;77.51;101574.09;5079654;28;8838;-58
2024/01/31 06:52:30;;;;;;;;;3.00;1.00;;;;;6.67;77.37;101575.03;5098066;28;8838;-57
2024/01/31 06:54:58;;;;;;;;;0.20;0.00;;;;;6.64;77.62;101568.97;5097904;28;8834;-58
2024/01/31 06:57:25;;;;;;;;;3.20;2.60;;;;;6.65;78.09;101574.22;5096657;28;8818;-56
2024/01/31 06:59:53;;;;;;;;;5.20;3.60;;;;;6.64;77.99;101566.34;5097396;28;8821;-56
2024/01/31 07:02:21;;;;;;;;;2.50;1.00;;;;;6.65;78.03;101568.06;5096910;28;8878;-56
2024/01/31 07:04:48;;;;;;;;;2.20;2.20;;;;;6.63;77.30;101564.63;5101775;28;8830;-57
2024/01/31 07:07:16;;;;;;;;;3.00;3.00;;;;;6.64;77.85;101566.34;5098618;28;8822;-55
2024/01/31 07:09:44;;;;;;;;;4.00;2.60;;;;;6.63;77.77;101565.50;5097344;28;8826;-56
2024/01/31 07:12:12;;;;;;;;;2.00;1.00;;;;;6.65;77.87;101578.66;5103720;28;8833;-57
2024/01/31 07:14:40;;;;;;;;;3.00;3.00;;;;;6.66;77.83;101575.94;5096877;28;8852;-58
2024/01/31 07:17:08;;;;;;;;;1.00;1.00;;;;;6.67;77.66;101582.13;5105318;28;8856;-58
2024/01/31 07:19:35;;;;;;;;;2.60;2.20;;;;;6.66;77.92;101565.34;5076461;28;8862;-55
2024/01/31 07:22:03;;;;;;;;;2.50;2.00;;;;;6.67;77.90;101571.53;5076374;28;8824;-56
2024/01/31 07:24:32;;;;;;;;;0.75;0.00;;;;;6.65;77.92;101568.94;5076707;28;8843;-59
2024/01/31 07:27:00;;;;;;;;;0.80;0.80;;;;;6.64;78.29;101566.34;5080436;28;8828;-56
2024/01/31 07:29:28;;;;;;;;;3.25;3.00;;;;;6.64;77.90;101566.34;5117800;28;8828;-56
2024/01/31 07:31:56;;;;;;;;;2.40;2.40;;;;;6.61;77.76;101569.94;5117187;28;8955;-58
2024/01/31 07:34:24;;;;;;;;;1.00;0.00;;;;;6.60;77.76;101573.53;5101707;28;8863;-56
2024/01/31 07:36:52;;;;;;;;;1.40;1.00;;;;;6.59;77.77;101578.91;5076516;28;8901;-59
2024/01/31 07:39:20;;;;;;;;;4.00;4.00;;;;;6.60;77.79;101575.31;5076436;28;8816;-59
2024/01/31 07:41:47;;;;;;;;;2.60;1.00;;;;;6.60;77.93;101576.16;5076044;28;8832;-58
2024/01/31 07:44:15;;;;;;;;;3.00;3.00;;;;;6.62;77.85;101581.41;5075210;28;9002;-60
2024/01/31 07:46:43;;;;;;;;;4.40;3.60;;;;;6.63;77.67;101589.31;5075685;28;8882;-60
2024/01/31 07:49:11;;;;;;;;;3.00;1.00;;;;;6.65;78.12;101591.88;5076063;28;8860;-58
2024/01/31 07:51:39;;;;;;;;;3.00;1.40;;;;;6.66;77.99;101586.53;5076432;28;8844;-59
2024/01/31 07:54:08;;;;;;;;;3.50;3.50;;;;;6.68;77.73;101582.03;5075820;28;8832;-58
2024/01/31 07:56:35;;;;;;;;;4.00;3.20;;;;;6.71;77.69;101584.59;5075968;28;8835;-59
2024/01/31 07:59:03;;;;;;;;;5.60;4.00;;;;;6.74;77.73;101573.03;5075816;28;8851;-58
2024/01/31 08:01:31;;;;;;;;;5.20;5.20;;;;;6.77;77.36;101578.19;5075639;28;8893;-59
2024/01/31 08:03:59;;;;;;;;;6.40;6.40;;;;;6.80;77.38;101583.34;5081014;28;9605;-58
2024/01/31 08:06:27;;;;;;;;;5.20;3.60;;;;;6.84;77.32;101579.69;5095486;28;8821;-59
2024/01/31 08:08:55;;;;;;;;;5.20;4.00;;;;;6.87;77.28;101585.72;5095334;28;8885;-61
2024/01/31 08:11:28;;;;;;;;;6.00;6.00;;;;;6.90;76.83;101590.91;5095896;28;8980;-57
2024/01/31 08:13:56;;;;;;;;;7.20;5.60;;;;;6.92;77.10;101590.84;5097272;28;8895;-61
2024/01/31 08:16:24;;;;;;;;;4.40;4.40;;;;;6.95;77.02;101596.00;5093335;28;8865;-60
2024/01/31 08:18:53;;;;;;;;;6.00;4.00;;;;;6.98;77.25;101603.84;5094420;28;8926;-60
2024/01/31 08:21:21;;;;;;;;;4.50;3.50;;;;;7.01;77.46;101599.31;5101365;28;8956;-60
2024/01/31 08:23:50;;;;;;;;;5.20;5.20;;;;;7.04;77.24;101601.81;5094747;28;8833;-60
2024/01/31 08:26:18;;;;;;;;;5.60;5.60;;;;;7.06;76.78;101610.56;5105708;28;8836;-58
2024/01/31 08:28:46;;;;;;;;;9.60;9.60;;;;;7.10;76.81;101619.25;5115728;28;8851;-58
2024/01/31 08:31:18;;;;;;;;;6.50;5.50;;;;;7.12;76.65;101620.94;5115731;28;8840;-58
2024/01/31 08:33:47;;;;;;;;;3.40;3.40;;;;;7.15;76.50;101623.47;5115817;28;8824;-58
2024/01/31 08:36:15;;;;;;;;;4.40;4.00;;;;;7.18;77.06;101635.72;5116412;28;8965;-58
2024/01/31 08:38:43;;;;;;;;;5.50;4.00;;;;;7.19;76.63;101634.81;5102441;28;8814;-56
2024/01/31 08:41:11;;;;;;;;;7.20;6.40;;;;;7.19;76.75;101642.78;5080741;28;8851;-58
2024/01/31 08:43:39;;;;;;;;;6.50;6.25;;;;;7.19;76.88;101637.47;5076013;28;8881;-59
2024/01/31 08:46:07;;;;;;;;;5.25;4.00;;;;;7.20;76.59;101647.13;5074816;28;8858;-60
2024/01/31 08:48:35;;;;;;;;;5.50;5.50;;;;;7.19;76.38;101646.25;5073868;28;8875;-60
2024/01/31 08:51:05;;;;;;;;;6.00;5.20;;;;;7.22;76.88;101647.94;5073685;28;8824;-59
2024/01/31 08:53:33;;;;;;;;;6.80;6.60;;;;;7.22;76.73;101645.28;5073956;28;8832;-60
2024/01/31 08:56:01;;;;;;;;;6.60;6.20;;;;;7.23;76.55;101647.00;5074325;28;8832;-60
2024/01/31 08:58:36;;;;;;;;;2.20;1.00;;;;;7.23;76.80;101653.19;5074908;28;8839;-56
2024/01/31 09:01:04;;;;;;;;;10.40;7.40;;;;;7.26;76.65;101657.47;5074241;28;8836;-57
2024/01/31 09:03:32;;;;;;;;;7.20;4.20;;;;;7.26;76.70;101658.34;5075009;28;9844;-59
2024/01/31 09:06:00;;;;;;;;;3.75;3.75;;;;;7.28;76.74;101658.31;5075109;28;8886;-60
2024/01/31 09:08:28;;;;;;;;;9.20;8.60;;;;;7.30;76.08;101659.09;5074990;28;8828;-55
2024/01/31 09:10:56;;;;;;;;;3.25;3.00;;;;;7.30;76.46;101653.78;5074715;28;8832;-57
2024/01/31 09:13:25;;;;;;;;;3.75;3.00;;;;;7.29;76.40;101652.06;5091144;28;8817;-58
2024/01/31 09:15:54;;;;;;;;;5.60;3.80;;;;;7.32;76.51;101657.25;5075618;28;8990;-58
2024/01/31 09:18:22;;;;;;;;;6.00;5.50;;;;;7.34;76.48;101666.88;5075679;28;8878;-57
2024/01/31 09:20:50;;;;;;;;;2.50;2.50;;;;;7.35;75.99;101662.44;5094312;28;8864;-58
2024/01/31 09:23:17;;;;;;;;;2.50;1.00;;;;;7.37;76.43;101668.53;5094241;28;8810;-56
2024/01/31 09:25:45;;;;;;;;;1.00;1.00;;;;;7.37;76.42;101665.88;5093043;28;8853;-58
2024/01/31 09:28:13;;;;;;;;;3.00;3.00;;;;;7.38;76.27;101667.59;5093221;28;8857;-59
2024/01/31 09:30:43;;;;;;;;;2.25;2.25;;;;;7.40;76.49;101668.41;5091582;28;8863;-58
2024/01/31 09:33:11;;;;;;;;;2.50;1.00;;;;;7.43;76.40;101669.16;5093002;28;8902;-56
2024/01/31 09:35:40;;;;;;;;;3.00;3.00;;;;;7.45;76.31;101669.09;5096280;28;8869;-57
2024/01/31 09:38:08;;;;;;;;;0.00;0.00;;;;;7.46;76.13;101657.56;5110709;28;8816;-59
2024/01/31 09:40:36;;;;;;;;;3.00;1.50;;;;;7.47;76.12;101651.34;5111169;28;8822;-59
2024/01/31 09:43:04;;;;;;;;;1.00;1.00;;;;;7.48;76.18;101653.06;5094317;28;8891;-58
2024/01/31 09:45:32;;;;;;;;;3.50;3.50;;;;;7.49;75.63;101645.06;5094200;28;8821;-59
2024/01/31 09:48:00;;;;;;;;;1.00;1.00;;;;;7.53;76.03;101637.84;5092512;28;8858;-58
2024/01/31 09:50:28;;;;;;;;;3.00;2.50;;;;;7.55;75.98;101634.22;5084421;28;8840;-57
2024/01/31 09:52:56;;;;;;;;;4.00;3.00;;;;;7.58;75.92;101625.28;5083173;28;8811;-57
2024/01/31 09:55:24;;;;;;;;;1.00;1.00;;;;;7.62;75.51;101616.25;5113507;28;8911;-57
2024/01/31 09:57:54;;;;;;;;;2.50;2.50;;;;;7.65;75.73;101617.00;5113741;28;8847;-57
2024/01/31 10:00:22;;;;;;;;;1.50;1.00;;;;;7.68;75.43;101616.03;5114118;28;8916;-59
2024/01/31 10:02:50;;;;;;;;;4.00;3.00;;;;;7.69;75.26;101606.22;5114148;28;8908;-56
2024/01/31 10:05:18;;;;;;;;;2.50;1.00;;;;;7.73;75.51;101602.53;5113485;28;8985;-58
2024/01/31 10:07:46;;;;;;;;;0.00;0.00;;;;;7.77;75.61;101598.78;5092205;28;8955;-58
2024/01/31 10:10:14;;;;;;;;;1.00;1.00;;;;;7.79;75.47;101596.97;5073498;28;8844;-57
2024/01/31 10:12:42;;;;;;;;;1.00;1.00;;;;;7.82;75.24;101599.47;5083521;28;8939;-56
2024/01/31 10:15:10;;;;;;;;;1.50;1.00;;;;;7.86;74.87;101605.53;5093984;28;8841;-57
2024/01/31 10:17:38;;;;;;;;;3.00;3.00;;;;;7.90;74.97;101607.13;5093978;28;8988;-57
2024/01/31 10:20:10;;;;;;;;;3.00;3.00;;;;;7.94;75.05;101614.00;5094229;28;8829;-58
2024/01/31 10:22:40;;;;;;;;;3.00;3.00;;;;;7.97;74.97;101605.91;5094149;28;8848;-59
2024/01/31 10:25:08;;;;;;;;;1.50;1.50;;;;;8.02;74.52;101603.94;5080163;28;8836;-56
2024/01/31 10:27:37;;;;;;;;;3.00;3.00;;;;;8.03;74.80;101601.22;5074100;28;8832;-59
2024/01/31 10:30:07;;;;;;;;;3.50;3.25;;;;;8.03;74.59;101598.59;5083947;28;8849;-57
2024/01/31 10:32:35;;;;;;;;;4.75;3.75;;;;;8.05;74.75;101598.53;5093347;28;8842;-57
2024/01/31 10:35:04;;;;;;;;;4.50;4.50;;;;;8.06;74.56;101590.47;5094362;28;8838;-59
2024/01/31 10:37:52;;;;;;;;;4.50;4.50;;;;;8.08;74.67;101593.94;5092728;28;8826;-57
2024/01/31 10:40:25;;;;;;;;;0.25;0.00;;;;;8.10;74.52;101583.25;5092738;28;8810;-59
2024/01/31 10:42:54;;;;;;;;;3.50;3.00;;;;;8.14;74.52;101582.19;5099361;28;9640;-58
2024/01/31 10:45:22;;;;;;;;;4.00;4.00;;;;;8.19;74.43;101574.91;5116549;28;8831;-57
2024/01/31 10:47:50;;;;;;;;;2.50;2.50;;;;;8.21;74.05;101578.38;5105933;28;8838;-56
2024/01/31 10:50:18;;;;;;;;;3.75;3.25;;;;;8.24;74.59;101572.94;5096700;28;8838;-58
2024/01/31 10:52:46;;;;;;;;;5.75;5.75;;;;;8.26;74.68;101565.75;5097225;28;8842;-59
2024/01/31 10:55:14;;;;;;;;;4.00;4.00;;;;;8.29;73.94;101558.53;5096854;28;8838;-59
2024/01/31 10:57:43;;;;;;;;;4.50;4.00;;;;;8.33;74.20;101559.25;5094026;28;8921;-59
2024/01/31 11:00:11;;;;;;;;;5.50;5.50;;;;;8.36;73.95;101556.47;5101184;28;8958;-60
2024/01/31 11:02:39;;;;;;;;;4.50;4.50;;;;;8.37;74.47;101550.25;5116676;28;9696;-59
2024/01/31 11:05:08;;;;;;;;;4.00;4.00;;;;;8.38;74.25;101544.00;5117543;28;8848;-59
2024/01/31 11:07:36;;;;;;;;;7.75;6.25;;;;;8.40;73.92;101542.13;5116920;28;8832;-59
2024/01/31 11:10:03;;;;;;;;;4.00;3.25;;;;;8.39;74.26;101530.66;5117004;28;8955;-59
2024/01/31 11:12:32;;;;;;;;;9.50;8.00;;;;;8.38;74.07;101522.75;5109025;28;8971;-57
2024/01/31 11:15:01;;;;;;;;;6.00;5.50;;;;;8.36;74.06;101517.50;5092097;28;9612;-57
2024/01/31 11:17:34;;;;;;;;;8.00;7.50;;;;;8.35;74.11;101504.34;5076750;28;8836;-58
2024/01/31 11:20:02;;;;;;;;;5.50;5.50;;;;;8.34;74.29;101492.84;5076677;28;8844;-57
2024/01/31 11:22:30;;;;;;;;;7.00;6.00;;;;;8.34;74.39;101502.59;5076238;28;8859;-57
2024/01/31 11:24:58;;;;;;;;;4.00;3.50;;;;;8.35;74.24;101491.06;5076167;28;8828;-56
2024/01/31 11:27:27;;;;;;;;;5.50;5.00;;;;;8.37;74.25;101491.84;5076486;28;8851;-58
2024/01/31 11:29:55;;;;;;;;;2.50;1.50;;;;;8.40;74.46;101503.19;5076362;28;8824;-58
2024/01/31 11:32:23;;;;;;;;;9.75;7.50;;;;;8.42;74.28;101503.97;5076707;28;8848;-59
2024/01/31 11:34:51;;;;;;;;;3.00;3.00;;;;;8.42;74.09;101493.34;5076783;28;8946;-59
2024/01/31 11:37:20;;;;;;;;;6.25;4.00;;;;;8.44;74.00;101502.09;5094563;28;8818;-57
2024/01/31 11:39:48;;;;;;;;;9.25;9.25;;;;;8.46;74.11;101497.59;5096561;28;8827;-58
2024/01/31 11:42:15;;;;;;;;;8.00;7.25;;;;;8.49;74.35;101489.47;5097361;28;8828;-58
2024/01/31 11:44:43;;;;;;;;;6.50;5.00;;;;;8.53;74.36;101495.50;5096298;28;8842;-57